地図

経路データ

SID SEASON NUMBER BASIN SUBBASIN NAME ISO_TIME NATURE LAT LON WMO_WIND WMO_PRES WMO_AGENCY TRACK_TYPE DIST2LAND LANDFALL IFLAG USA_AGENCY USA_ATCF_ID USA_LAT USA_LON USA_RECORD USA_STATUS USA_WIND USA_PRES USA_SSHS USA_R34_NE USA_R34_SE USA_R34_SW USA_R34_NW USA_R50_NE USA_R50_SE USA_R50_SW USA_R50_NW USA_R64_NE USA_R64_SE USA_R64_SW USA_R64_NW USA_POCI USA_ROCI USA_RMW USA_EYE TOKYO_LAT TOKYO_LON TOKYO_GRADE TOKYO_WIND TOKYO_PRES TOKYO_R50_DIR TOKYO_R50_LONG TOKYO_R50_SHORT TOKYO_R30_DIR TOKYO_R30_LONG TOKYO_R30_SHORT TOKYO_LAND CMA_LAT CMA_LON CMA_CAT CMA_WIND CMA_PRES HKO_LAT HKO_LON HKO_CAT HKO_WIND HKO_PRES NEWDELHI_LAT NEWDELHI_LON NEWDELHI_GRADE NEWDELHI_WIND NEWDELHI_PRES NEWDELHI_CI NEWDELHI_DP NEWDELHI_POCI REUNION_LAT REUNION_LON REUNION_TYPE REUNION_WIND REUNION_PRES REUNION_TNUM REUNION_CI REUNION_RMW REUNION_R34_NE REUNION_R34_SE REUNION_R34_SW REUNION_R34_NW REUNION_R50_NE REUNION_R50_SE REUNION_R50_SW REUNION_R50_NW REUNION_R64_NE REUNION_R64_SE REUNION_R64_SW REUNION_R64_NW BOM_LAT BOM_LON BOM_TYPE BOM_WIND BOM_PRES BOM_TNUM BOM_CI BOM_RMW BOM_R34_NE BOM_R34_SE BOM_R34_SW BOM_R34_NW BOM_R50_NE BOM_R50_SE BOM_R50_SW BOM_R50_NW BOM_R64_NE BOM_R64_SE BOM_R64_SW BOM_R64_NW BOM_ROCI BOM_POCI BOM_EYE BOM_POS_METHOD BOM_PRES_METHOD NADI_LAT NADI_LON NADI_CAT NADI_WIND NADI_PRES WELLINGTON_LAT WELLINGTON_LON WELLINGTON_WIND WELLINGTON_PRES DS824_LAT DS824_LON DS824_STAGE DS824_WIND DS824_PRES TD9636_LAT TD9636_LON TD9636_STAGE TD9636_WIND TD9636_PRES TD9635_LAT TD9635_LON TD9635_WIND TD9635_PRES TD9635_ROCI NEUMANN_LAT NEUMANN_LON NEUMANN_CLASS NEUMANN_WIND NEUMANN_PRES MLC_LAT MLC_LON MLC_CLASS MLC_WIND MLC_PRES USA_GUST BOM_GUST BOM_GUST_PER REUNION_GUST REUNION_GUST_PER USA_SEAHGT USA_SEARAD_NE USA_SEARAD_SE USA_SEARAD_SW USA_SEARAD_NW STORM_SPEED STORM_DIR
1893173N15114 1893 18 WP MM NOT_NAMED 1893-06-21 16:00:00 NR 14.7000 113.500 main 461 461 __________O___ -1 14.7000 113.500 7 1 0
1893173N15114 1893 18 WP MM NOT_NAMED 1893-06-21 18:00:00 NR 14.6856 113.523 main 461 461 __________P___ -1 14.6856 113.523 7 0 0
1893173N15114 1893 18 WP MM NOT_NAMED 1893-06-21 21:00:00 NR 14.6757 113.518 main 461 450 __________P___ -1 14.6757 113.518 7 1 275
1893173N15114 1893 18 WP MM NOT_NAMED 1893-06-22 00:00:00 NR 14.6959 113.410 main 450 421 __________P___ -1 14.6959 113.410 7 4 283
1893173N15114 1893 18 WP MM NOT_NAMED 1893-06-22 03:00:00 NR 14.7637 113.138 main 421 411 __________P___ -1 14.7637 113.138 7 6 285
1893173N15114 1893 18 WP MM NOT_NAMED 1893-06-22 04:00:00 NR 14.8000 113.000 main 411 372 __________O___ -1 14.8000 113.000 7 10 286
1893173N15114 1893 18 WP MM NOT_NAMED 1893-06-22 06:00:00 NR 14.8956 112.648 main 372 314 __________P___ -1 14.8956 112.648 7 12 287
1893173N15114 1893 18 WP MM NOT_NAMED 1893-06-22 09:00:00 NR 15.0947 111.986 main 314 245 __________P___ -1 15.0947 111.986 7 14 289
1893173N15114 1893 18 WP MM NOT_NAMED 1893-06-22 12:00:00 NR 15.3571 111.263 main 248 190 __________P___ -1 15.3571 111.263 7 15 294
1893173N15114 1893 18 WP MM NOT_NAMED 1893-06-22 15:00:00 NR 15.6795 110.592 main 190 174 __________P___ -1 15.6795 110.592 7 14 298
1893173N15114 1893 18 WP MM NOT_NAMED 1893-06-22 16:00:00 NR 15.8000 110.400 main 174 156 __________O___ -1 15.8000 110.400 3 12 307
1893173N15114 1893 18 WP MM NOT_NAMED 1893-06-22 18:00:00 NR 16.0484 110.079 main 156 154 __________P___ -1 16.0484 110.079 3 12 315
1893173N15114 1893 18 WP MM NOT_NAMED 1893-06-22 21:00:00 NR 16.4719 109.691 main 159 145 __________P___ -1 16.4719 109.691 3 11 325
1893173N15114 1893 18 WP MM NOT_NAMED 1893-06-23 00:00:00 NR 16.9399 109.429 main 145 91 __________P___ -1 16.9399 109.429 3 10 339
1893173N15114 1893 18 WP MM NOT_NAMED 1893-06-23 03:00:00 NR 17.4332 109.307 main 91 70 __________P___ -1 17.4332 109.307 3 10 349
1893173N15114 1893 18 WP MM NOT_NAMED 1893-06-23 04:00:00 NR 17.6000 109.300 main 70 39 __________O___ -1 17.6000 109.300 4 10 3
1893173N15114 1893 18 WP MM NOT_NAMED 1893-06-23 06:00:00 NR 17.9297 109.337 main 39 0 __________P___ -1 17.9297 109.337 4 10 14
1893173N15114 1893 18 WP MM NOT_NAMED 1893-06-23 09:00:00 NR 18.4374 109.520 main 0 0 __________P___ -1 18.4374 109.520 4 11 23
1893173N15114 1893 18 WP MM NOT_NAMED 1893-06-23 12:00:00 NR 18.9464 109.797 main 0 0 __________P___ -1 18.9464 109.797 4 12 29
1893173N15114 1893 18 WP MM NOT_NAMED 1893-06-23 15:00:00 NR 19.4410 110.103 main 0 0 __________P___ -1 19.4410 110.103 4 11 30
1893173N15114 1893 18 WP MM NOT_NAMED 1893-06-23 16:00:00 NR 19.6000 110.200 main 0 0 __________O___ -1 19.6000 110.200 4 10 29
1893173N15114 1893 18 WP MM NOT_NAMED 1893-06-23 18:00:00 NR 19.8953 110.370 main 0 0 __________P___ -1 19.8953 110.370 4 10 29
1893173N15114 1893 18 WP MM NOT_NAMED 1893-06-23 21:00:00 NR 20.3191 110.620 main 22 15 __________P___ -1 20.3191 110.620 4 9 27
1893173N15114 1893 18 WP MM NOT_NAMED 1893-06-24 00:00:00 NR 20.7339 110.833 main 38 30 __________P___ -1 20.7339 110.833 4 9 22
1893173N15114 1893 18 WP MM NOT_NAMED 1893-06-24 03:00:00 NR 21.1553 110.974 main 30 22 __________P___ -1 21.1553 110.974 4 9 16
1893173N15114 1893 18 WP MM NOT_NAMED 1893-06-24 04:00:00 NR 21.3000 111.000 main 22 0 __________O___ -1 21.3000 111.000 7 9 5
1893173N15114 1893 18 WP MM NOT_NAMED 1893-06-24 06:00:00 NR 21.6130 111.005 main 0 0 __________P___ -1 21.6130 111.005 7 10 356
1893173N15114 1893 18 WP MM NOT_NAMED 1893-06-24 09:00:00 NR 22.0955 110.937 main 0 0 __________P___ -1 22.0955 110.937 7 10 349
1893173N15114 1893 18 WP MM NOT_NAMED 1893-06-24 12:00:00 NR 22.5795 110.808 main 0 0 __________P___ -1 22.5795 110.808 7 10 345
1893173N15114 1893 18 WP MM NOT_NAMED 1893-06-24 15:00:00 NR 23.0493 110.652 main 0 0 __________P___ -1 23.0493 110.652 7 10 343
1893173N15114 1893 18 WP MM NOT_NAMED 1893-06-24 16:00:00 NR 23.2000 110.600 main 0 0 __________O___ -1 23.2000 110.600 7 9 343
1893173N15114 1893 18 WP MM NOT_NAMED 1893-06-24 18:00:00 NR 23.4904 110.503 main 0 0 __________P___ -1 23.4904 110.503 7 9 343
1893173N15114 1893 18 WP MM NOT_NAMED 1893-06-24 21:00:00 NR 23.9026 110.371 main 0 0 __________P___ -1 23.9026 110.371 7 8 344
1893173N15114 1893 18 WP MM NOT_NAMED 1893-06-25 00:00:00 NR 24.2943 110.251 main 0 0 __________P___ -1 24.2943 110.251 7 8 344
1893173N15114 1893 18 WP MM NOT_NAMED 1893-06-25 03:00:00 NR 24.6744 110.137 main 0 0 __________P___ -1 24.6744 110.137 7 8 345
1893173N15114 1893 18 WP MM NOT_NAMED 1893-06-25 04:00:00 NR 24.8000 110.100 main 0 __________O___ -1 24.8000 110.100 7 8 343

デジタル台風データ・検索

IBTrACS Databaseについて

本データベースは、米国NOAAが公開する1842年以降の世界の熱帯低気圧のベストトラックデータアーカイブInternational Best Track Archive for Climate Stewardship (IBTrACS)を、ウェブで閲覧しやすい形式に変換したものです。

最終更新日:2021-12-03